Terminal Aerodrome Forecast
Issued by NWS Sioux Falls, SD

Home | Current Version | Previous Version | Text Only | Print | Product List | Glossary On
Versions: 1 2 3 4 5 6 7 8 9 10 11 12 13 14 15
000
FTUS43 KFSD 200530
TAFFSD
TAF
KFSD 200530Z 2006/2106 17013KT P6SM SCT150 OVC200 WS014/19045KT
     FM201000 16010KT P6SM VCSH SCT015 OVC070
      TEMPO 2010/2012 BKN015
     FM201200 17010KT 6SM -SHRA BR OVC015
     FM201500 20011KT P6SM BKN008 OVC040
     FM201700 24011KT P6SM SCT015 BKN100
     FM202000 29012KT P6SM BKN120
     FM210500 23005KT P6SM SKC=

USA.gov is the U.S. government's official web portal to all federal, state and local government web resources and services.